Hauptseite
METAR-TAF:

METAR-TAF

Flughäfen :

Andora, Italien

Capo Mele

Breite: 43-57N, Länge: 008-10E, Höhe: 220 m

Beobachtung

Neuester Wetterbericht von vor 53 Minuten, um 10:55 UTC
Wind 7 kt aus Süd/Südwest
Temperatur 13°C
Luftfeuchtigkeit 88%
Luftdruck 1021 hPa
Sichtweite 10 km oder mehr
keine Wolken unter 1500 m und keine Kumulonimbus oder Gewitterwolken

METAR: LIMU 231055Z 20007KT CAVOK 13/11 Q1021 RMK SCT SCT200 QUK 3 QUL 1 S VIS MAR 30 KM VIS MIN 9999

Zeit: 12:48 (11:48 UTC)


TAF: fehlend

Wetterbeobachtungen und Prognosen von mehr als 4000 Flughäfen (METAR und TAF Bericht).

Die verfügbaren Stationen werden durch gelbe und rote Markierungen auf der Karte dargestellt.

Führen Sie die Maus auf sie, um den Namen der Station zu sehen.

Darauf klicken, um die Beobachtung von Wetterbeobachtungen und Prognosen zu sehen.

Um die Karte zu ändern : klicken Sie auf den grünen Tasten mit einem schwarzen Kreuz Zum Vergrößern, auf den grünen Button mit einem Gedankenstrich zu verkleinern, oder auf die grünen Pfeile für benachbarte Karten.


METAR-TAF: